Time;durP1;ratioP1;P1;durP2;ratioP2;P2;SDS_P1;SDS_P2;PMS_P1;PMS_P2;Temp;Humidity;BMP_temperature;BMP_pressure;BME280_temperature;BME280_humidity;BME280_pressure;Samples;Min_cycle;Max_cycle;Signal;HPM_P1;HPM_P2
2023/02/25 00:01:59;;;;;;;;;;;;;;;20.18;48.89;98871.34;5068574;28;3100;-64
2023/02/25 00:04:29;;;;;;;;;;;;;;;20.18;48.96;98865.59;5069427;28;2734;-64
2023/02/25 00:06:56;;;;;;;;;;;;;;;20.16;49.10;98872.03;5066619;28;2908;-65
2023/02/25 00:09:22;;;;;;;;;;;;;;;20.17;49.01;98858.41;5066499;28;2980;-64
2023/02/25 00:11:48;;;;;;;;;;;;;;;20.20;48.88;98868.50;5061115;28;2825;-64
2023/02/25 00:14:15;;;;;;;;;;;;;;;20.20;48.88;98868.50;5057938;28;2839;-65
2023/02/25 00:16:41;;;;;;;;;;;;;;;20.18;48.95;98865.59;5057139;28;2743;-64
2023/02/25 00:19:09;;;;;;;;;;;;;;;20.19;49.38;98864.19;5066815;28;2738;-64
2023/02/25 00:21:35;;;;;;;;;;;;;;;20.16;49.30;98862.69;5055290;28;2774;-65
2023/02/25 00:24:02;;;;;;;;;;;;;;;20.14;49.34;98865.53;5070582;28;2299;-65
2023/02/25 00:26:41;;;;;;;;;;;;;;;20.13;49.49;98879.16;5061244;28;2238;-64
2023/02/25 00:29:07;;;;;;;;;;;;;;;20.13;49.48;98905.03;5058486;28;2321;-65
2023/02/25 00:31:34;;;;;;;;;;;;;;;20.13;49.36;98901.44;5054342;28;2738;-65
2023/02/25 00:34:00;;;;;;;;;;;;;;;20.12;49.35;98903.59;5063705;28;3135;-64
2023/02/25 00:36:26;;;;;;;;;;;;;;;20.11;49.40;98887.03;5066361;28;2385;-65
2023/02/25 00:38:53;;;;;;;;;;;;;;;20.11;49.26;98902.13;5068571;28;1695;-64
2023/02/25 00:41:20;;;;;;;;;;;;;;;20.11;49.23;98896.38;5091007;27;2954;-65
2023/02/25 00:43:48;;;;;;;;;;;;;;;20.14;49.18;98888.53;5051081;28;2920;-64
2023/02/25 00:46:14;;;;;;;;;;;;;;;20.16;48.91;98886.41;5066581;28;1991;-65
2023/02/25 00:48:41;;;;;;;;;;;;;;;20.18;49.27;98888.56;5062194;28;2701;-64
2023/02/25 00:51:08;;;;;;;;;;;;;;;20.19;49.15;98885.00;5062616;28;2571;-65
2023/02/25 00:53:34;;;;;;;;;;;;;;;20.21;49.36;98890.06;5092202;27;2598;-64
2023/02/25 00:56:00;;;;;;;;;;;;;;;20.22;49.27;98888.63;5064163;28;2051;-64
2023/02/25 00:58:27;;;;;;;;;;;;;;;20.22;49.33;98886.50;5061969;28;3350;-64
2023/02/25 01:00:53;;;;;;;;;;;;;;;20.23;49.32;98885.09;5056795;28;2728;-64
2023/02/25 01:03:19;;;;;;;;;;;;;;;20.24;49.38;98882.94;5052894;28;2836;-64
2023/02/25 01:05:49;;;;;;;;;;;;;;;20.25;49.51;98893.75;5066090;28;1984;-64
2023/02/25 01:08:16;;;;;;;;;;;;;;;20.26;49.41;98882.97;5054651;28;1733;-64
2023/02/25 01:10:42;;;;;;;;;;;;;;;20.25;49.41;98878.66;5064853;28;2758;-64
2023/02/25 01:13:09;;;;;;;;;;;;;;;20.24;49.43;98874.31;5056808;28;2733;-64
2023/02/25 01:15:35;;;;;;;;;;;;;;;20.25;49.38;98887.28;5059346;28;2764;-64
2023/02/25 01:18:02;;;;;;;;;;;;;;;20.23;49.43;98867.84;5050343;28;1672;-64
2023/02/25 01:20:28;;;;;;;;;;;;;;;20.23;49.52;98872.88;5066179;28;2861;-64
2023/02/25 01:22:55;;;;;;;;;;;;;;;20.23;49.43;98884.38;5067853;28;2853;-65
2023/02/25 01:25:23;;;;;;;;;;;;;;;20.22;49.40;98882.91;5066642;28;2747;-64
2023/02/25 01:27:52;;;;;;;;;;;;;;;20.22;49.62;98885.75;5059693;28;2753;-64
2023/02/25 01:30:20;;;;;;;;;;;;;;;20.22;49.47;98882.91;5061018;28;2391;-64
2023/02/25 01:32:46;;;;;;;;;;;;;;;20.22;49.62;98880.75;5100861;27;2950;-64
2023/02/25 01:35:13;;;;;;;;;;;;;;;20.22;49.54;98882.91;5071228;28;2712;-63
2023/02/25 01:37:42;;;;;;;;;;;;;;;20.23;49.41;98885.09;5065460;28;2918;-64
2023/02/25 01:40:11;;;;;;;;;;;;;;;20.23;49.78;98879.34;5072217;28;2946;-64
2023/02/25 01:42:37;;;;;;;;;;;;;;;20.24;49.60;98886.53;5069388;28;2654;-64
2023/02/25 01:45:21;;;;;;;;;;;;;;;20.25;49.33;98881.53;5068921;28;2777;-64
2023/02/25 01:47:58;;;;;;;;;;;;;;;20.26;49.71;98891.59;5106564;27;2814;-64
2023/02/25 01:50:28;;;;;;;;;;;;;;;20.26;49.49;98900.22;5101932;27;3139;-64
2023/02/25 01:52:54;;;;;;;;;;;;;;;20.26;49.41;98891.59;5100666;27;2806;-64
2023/02/25 01:55:20;;;;;;;;;;;;;;;20.27;49.43;98890.16;5080893;28;2812;-64
2023/02/25 01:57:48;;;;;;;;;;;;;;;20.26;49.60;98900.22;5057764;28;2427;-64
2023/02/25 02:00:17;;;;;;;;;;;;;;;20.25;49.53;98905.22;5069268;28;2840;-64
2023/02/25 02:02:44;;;;;;;;;;;;;;;20.25;49.45;98898.75;5063365;28;3296;-64
2023/02/25 02:05:10;;;;;;;;;;;;;;;20.24;49.61;98903.03;5085273;28;2809;-64
2023/02/25 02:07:37;;;;;;;;;;;;;;;20.25;49.59;98910.25;5058319;28;3025;-64
2023/02/25 02:10:03;;;;;;;;;;;;;;;20.24;49.61;98897.28;5081184;28;2813;-64
2023/02/25 02:12:30;;;;;;;;;;;;;;;20.23;49.63;98899.44;5066630;28;2910;-64
2023/02/25 02:14:58;;;;;;;;;;;;;;;20.22;49.61;98905.88;5074185;28;2944;-64
2023/02/25 02:17:29;;;;;;;;;;;;;;;20.22;49.57;98909.47;5072706;28;2466;-64
2023/02/25 02:20:28;;;;;;;;;;;;;;;20.22;49.69;98905.88;5091262;27;2847;-64
2023/02/25 02:23:13;;;;;;;;;;;;;;;20.24;49.59;98903.03;5040430;28;2644;-64
2023/02/25 02:25:50;;;;;;;;;;;;;;;20.24;49.59;98903.75;5070622;28;2757;-65
2023/02/25 02:28:35;;;;;;;;;;;;;;;20.25;49.70;98904.50;5063492;28;3125;-64
2023/02/25 02:31:12;;;;;;;;;;;;;;;20.26;49.66;98900.94;5059344;28;2806;-64
2023/02/25 02:33:42;;;;;;;;;;;;;;;20.26;49.55;98895.19;5069180;28;3147;-65
2023/02/25 02:36:16;;;;;;;;;;;;;;;20.27;49.53;98901.66;5086358;28;2642;-64
2023/02/25 02:38:48;;;;;;;;;;;;;;;20.26;49.52;98897.34;5086725;28;3143;-64
2023/02/25 02:41:23;;;;;;;;;;;;;;;20.25;49.57;98898.75;5102000;27;2736;-64
2023/02/25 02:43:51;;;;;;;;;;;;;;;20.25;49.58;98895.91;5080600;28;2868;-64
2023/02/25 02:46:22;;;;;;;;;;;;;;;20.24;49.60;98888.69;5080633;28;3224;-65
2023/02/25 02:48:54;;;;;;;;;;;;;;;20.24;49.71;98900.16;5084836;28;2819;-64
2023/02/25 02:51:21;;;;;;;;;;;;;;;20.23;49.71;98899.44;5096460;27;2999;-64
2023/02/25 02:53:49;;;;;;;;;;;;;;;20.23;49.76;98907.34;5103299;27;2773;-64
2023/02/25 02:56:16;;;;;;;;;;;;;;;20.22;49.59;98911.63;5108394;27;2834;-64
2023/02/25 02:58:46;;;;;;;;;;;;;;;20.22;49.85;98911.63;5057640;28;2853;-64
2023/02/25 03:01:14;;;;;;;;;;;;;;;20.22;49.66;98917.38;5067339;28;2602;-65
2023/02/25 03:03:45;;;;;;;;;;;;;;;20.22;49.67;98917.38;5096911;28;2537;-65
2023/02/25 03:06:16;;;;;;;;;;;;;;;20.22;49.54;98917.38;5061157;28;2510;-64
2023/02/25 03:08:52;;;;;;;;;;;;;;;20.23;49.54;98916.69;5047308;28;2769;-65
2023/02/25 03:11:19;;;;;;;;;;;;;;;20.25;49.51;98924.63;5052854;28;3142;-64
2023/02/25 03:13:45;;;;;;;;;;;;;;;20.24;49.63;98929.63;5082211;28;2813;-64
2023/02/25 03:16:20;;;;;;;;;;;;;;;20.25;49.54;98933.97;5063888;28;3088;-65
2023/02/25 03:18:48;;;;;;;;;;;;;;;20.25;49.51;98933.97;5078596;28;3143;-64
2023/02/25 03:21:17;;;;;;;;;;;;;;;20.26;49.56;98949.06;5097952;28;2793;-64
2023/02/25 03:23:45;;;;;;;;;;;;;;;20.25;49.56;98944.75;5066204;28;2465;-64
2023/02/25 03:26:13;;;;;;;;;;;;;;;20.25;49.71;98953.38;5035796;28;2323;-64
2023/02/25 03:28:39;;;;;;;;;;;;;;;20.25;49.65;98962.00;5091809;28;2491;-65
2023/02/25 03:31:27;;;;;;;;;;;;;;;20.23;49.58;98959.06;5087033;28;1974;-65
2023/02/25 03:33:55;;;;;;;;;;;;;;;20.22;49.62;98958.31;5099768;28;2849;-64
2023/02/25 03:36:23;;;;;;;;;;;;;;;20.19;49.59;98970.50;5089532;28;2774;-64
2023/02/25 03:38:50;;;;;;;;;;;;;;;20.16;49.82;98966.88;5101927;28;2937;-65
2023/02/25 03:41:17;;;;;;;;;;;;;;;20.16;49.84;98971.88;5084801;28;2687;-65
2023/02/25 03:43:44;;;;;;;;;;;;;;;20.18;49.77;98969.78;5066122;28;2974;-65
2023/02/25 03:46:11;;;;;;;;;;;;;;;20.19;49.67;98976.25;5106395;28;2867;-64
2023/02/25 03:48:38;;;;;;;;;;;;;;;20.20;49.46;98981.31;5053099;28;2942;-65
2023/02/25 03:51:07;;;;;;;;;;;;;;;20.21;49.60;98979.16;5036225;28;3600;-65
2023/02/25 03:53:37;;;;;;;;;;;;;;;20.22;49.51;98981.31;5104305;27;2925;-65
2023/02/25 03:56:09;;;;;;;;;;;;;;;20.22;49.50;98981.31;5052177;28;2816;-66
2023/02/25 03:58:38;;;;;;;;;;;;;;;20.24;49.43;98989.25;5053988;28;2826;-66
2023/02/25 04:01:06;;;;;;;;;;;;;;;20.24;49.40;98997.88;5072789;28;2838;-65
2023/02/25 04:03:33;;;;;;;;;;;;;;;20.25;49.46;99002.22;5069695;28;3179;-65
2023/02/25 04:05:59;;;;;;;;;;;;;;;20.25;49.52;98994.31;5062227;28;2894;-65
2023/02/25 04:08:25;;;;;;;;;;;;;;;20.26;49.42;98998.63;5070970;28;2739;-65
2023/02/25 04:10:52;;;;;;;;;;;;;;;20.27;49.50;99005.84;5077776;28;3004;-65
2023/02/25 04:13:19;;;;;;;;;;;;;;;20.29;49.46;99025.25;5072741;28;2818;-65
2023/02/25 04:15:46;;;;;;;;;;;;;;;20.30;49.45;99012.38;5070797;28;2905;-65
2023/02/25 04:18:13;;;;;;;;;;;;;;;20.30;49.30;99023.88;5101481;27;3058;-65
2023/02/25 04:20:39;;;;;;;;;;;;;;;20.29;49.58;99026.00;5074339;28;2858;-65
2023/02/25 04:23:06;;;;;;;;;;;;;;;20.30;49.52;99035.34;5069908;28;2783;-65
2023/02/25 04:25:33;;;;;;;;;;;;;;;20.30;49.42;99046.84;5067917;28;2845;-65
2023/02/25 04:27:59;;;;;;;;;;;;;;;20.28;49.43;99041.78;5063599;28;2742;-65
2023/02/25 04:30:26;;;;;;;;;;;;;;;20.29;49.57;99039.63;5069032;28;2714;-65
2023/02/25 04:32:52;;;;;;;;;;;;;;;20.28;49.40;99041.06;5071949;28;3195;-65
2023/02/25 04:35:18;;;;;;;;;;;;;;;20.28;49.41;99036.03;5073992;28;2850;-65
2023/02/25 04:37:45;;;;;;;;;;;;;;;20.28;49.41;99052.56;5071106;28;2865;-65
2023/02/25 04:40:15;;;;;;;;;;;;;;;20.28;49.48;99052.56;5073071;28;1723;-65
2023/02/25 04:42:42;;;;;;;;;;;;;;;20.28;49.40;99055.44;5061007;28;2687;-65
2023/02/25 04:45:09;;;;;;;;;;;;;;;20.29;49.29;99054.00;5072717;28;2778;-65
2023/02/25 04:47:35;;;;;;;;;;;;;;;20.29;49.48;99048.25;5069390;28;2730;-65
2023/02/25 04:50:02;;;;;;;;;;;;;;;20.29;49.37;99062.63;5066591;28;2706;-65
2023/02/25 04:52:28;;;;;;;;;;;;;;;20.28;49.38;99064.06;5072209;28;2928;-65
2023/02/25 04:54:54;;;;;;;;;;;;;;;20.28;49.40;99064.06;5072951;28;2667;-65
2023/02/25 04:57:21;;;;;;;;;;;;;;;20.27;49.39;99059.72;5065100;28;2983;-65
2023/02/25 04:59:47;;;;;;;;;;;;;;;20.26;49.48;99061.88;5062054;28;2965;-65
2023/02/25 05:02:13;;;;;;;;;;;;;;;20.26;49.49;99066.91;5066340;28;2680;-65
2023/02/25 05:04:40;;;;;;;;;;;;;;;20.26;49.42;99070.47;5068626;28;2849;-65
2023/02/25 05:07:07;;;;;;;;;;;;;;;20.27;49.66;99066.22;5071001;28;2850;-65
2023/02/25 05:09:33;;;;;;;;;;;;;;;20.28;49.43;99081.31;5073510;28;2791;-66
2023/02/25 05:11:59;;;;;;;;;;;;;;;20.28;49.44;99082.03;5069279;28;2749;-65
2023/02/25 05:14:25;;;;;;;;;;;;;;;20.29;49.55;99077.75;5067890;28;3545;-65
2023/02/25 05:16:52;;;;;;;;;;;;;;;20.30;49.37;99090.69;5070773;28;2888;-65
2023/02/25 05:19:21;;;;;;;;;;;;;;;20.30;49.45;99084.22;5070438;28;2488;-66
2023/02/25 05:21:47;;;;;;;;;;;;;;;20.31;49.55;99079.91;5068976;28;3188;-65
2023/02/25 05:24:14;;;;;;;;;;;;;;;20.32;49.44;99090.00;5070617;28;2793;-65
2023/02/25 05:26:40;;;;;;;;;;;;;;;20.33;49.50;99093.59;5073935;28;2955;-65
2023/02/25 05:29:07;;;;;;;;;;;;;;;20.33;49.53;99093.59;5066119;28;2963;-66
2023/02/25 05:31:33;;;;;;;;;;;;;;;20.33;49.74;99087.84;5065280;28;2878;-66
2023/02/25 05:34:00;;;;;;;;;;;;;;;20.33;49.54;99102.94;5056272;28;2817;-65
2023/02/25 05:36:26;;;;;;;;;;;;;;;20.31;49.55;99102.91;5061088;28;2929;-65
2023/02/25 05:38:54;;;;;;;;;;;;;;;20.30;49.34;99107.94;5068185;28;2840;-65
2023/02/25 05:41:20;;;;;;;;;;;;;;;20.30;49.41;99119.44;5063975;28;2932;-65
2023/02/25 05:43:47;;;;;;;;;;;;;;;20.30;49.56;99125.19;5066452;28;2782;-65
2023/02/25 05:46:13;;;;;;;;;;;;;;;20.30;49.46;99130.94;5068674;28;2845;-65
2023/02/25 05:48:40;;;;;;;;;;;;;;;20.30;49.43;99130.94;5070894;28;2822;-65
2023/02/25 05:51:07;;;;;;;;;;;;;;;20.30;49.37;99133.06;5068187;28;2924;-65
2023/02/25 05:53:33;;;;;;;;;;;;;;;20.32;49.42;99143.88;5066014;28;2886;-65
2023/02/25 05:56:02;;;;;;;;;;;;;;;20.31;49.47;99148.91;5066178;28;2882;-65
2023/02/25 05:58:29;;;;;;;;;;;;;;;20.33;49.45;99151.09;5065165;28;2563;-65
2023/02/25 06:00:55;;;;;;;;;;;;;;;20.34;49.49;99152.53;5061673;28;2778;-65
2023/02/25 06:03:21;;;;;;;;;;;;;;;20.33;49.39;99157.56;5067981;28;1709;-65
2023/02/25 06:05:48;;;;;;;;;;;;;;;20.33;49.50;99163.31;5062650;28;2857;-65
2023/02/25 06:08:14;;;;;;;;;;;;;;;20.33;49.47;99163.31;5064769;28;1555;-65
2023/02/25 06:10:41;;;;;;;;;;;;;;;20.34;49.54;99166.91;5058711;28;2766;-65
2023/02/25 06:13:07;;;;;;;;;;;;;;;20.33;49.36;99174.09;5070165;28;2923;-65
2023/02/25 06:15:37;;;;;;;;;;;;;;;20.32;49.52;99181.22;5062402;28;2833;-65
2023/02/25 06:18:03;;;;;;;;;;;;;;;20.30;49.40;99176.91;5064204;28;2581;-65
2023/02/25 06:20:30;;;;;;;;;;;;;;;20.31;49.47;99189.13;5069479;28;2701;-65
2023/02/25 06:22:56;;;;;;;;;;;;;;;20.31;49.53;99180.50;5070954;28;2934;-65
2023/02/25 06:25:28;;;;;;;;;;;;;;;20.32;49.37;99196.34;5061488;28;3198;-65
2023/02/25 06:27:55;;;;;;;;;;;;;;;20.33;49.33;99203.56;5063684;28;2834;-66
2023/02/25 06:30:22;;;;;;;;;;;;;;;20.33;49.31;99202.81;5062944;28;2985;-66
2023/02/25 06:32:48;;;;;;;;;;;;;;;20.33;49.55;99203.56;5068065;28;2806;-66
2023/02/25 06:35:15;;;;;;;;;;;;;;;20.35;49.27;99215.09;5067024;28;2616;-65
2023/02/25 06:37:41;;;;;;;;;;;;;;;20.36;49.64;99222.28;5059727;28;2893;-71
2023/02/25 06:40:11;;;;;;;;;;;;;;;20.21;48.68;99234.91;5064312;28;2980;-66
2023/02/25 06:42:37;;;;;;;;;;;;;;;19.11;46.36;99233.78;5060202;28;2859;-66
2023/02/25 06:45:04;;;;;;;;;;;;;;;18.65;45.23;99234.00;5062565;28;2817;-66
2023/02/25 06:47:30;;;;;;;;;;;;;;;18.59;43.50;99242.41;5061896;28;2810;-66
2023/02/25 06:49:56;;;;;;;;;;;;;;;18.54;42.78;99240.84;5061042;28;2877;-66
2023/02/25 06:52:23;;;;;;;;;;;;;;;18.48;42.09;99249.28;5055573;28;2767;-66
2023/02/25 06:54:49;;;;;;;;;;;;;;;18.48;41.37;99257.88;5057810;28;2632;-65
2023/02/25 06:57:15;;;;;;;;;;;;;;;18.23;40.60;99262.16;5059167;28;2811;-66
2023/02/25 06:59:42;;;;;;;;;;;;;;;18.02;40.09;99269.41;5063471;28;2947;-66
2023/02/25 07:02:11;;;;;;;;;;;;;;;17.97;39.43;99263.56;5061025;28;2783;-66
2023/02/25 07:04:37;;;;;;;;;;;;;;;18.19;39.69;99271.38;5055499;28;2896;-65
2023/02/25 07:07:04;;;;;;;;;;;;;;;19.00;40.54;99277.97;5053070;28;2783;-64
2023/02/25 07:09:30;;;;;;;;;;;;;;;19.45;40.56;99282.00;5052139;28;2936;-66
2023/02/25 07:11:57;;;;;;;;;;;;;;;19.09;41.13;99288.25;5048838;28;2927;-65
2023/02/25 07:14:23;;;;;;;;;;;;;;;19.33;41.69;99290.28;5056136;28;2779;-65
2023/02/25 07:16:49;;;;;;;;;;;;;;;19.56;42.84;99292.31;5056265;28;2873;-66
2023/02/25 07:19:16;;;;;;;;;;;;;;;19.69;43.21;99296.22;5057110;28;2916;-66
2023/02/25 07:21:42;;;;;;;;;;;;;;;19.77;43.49;99310.03;5068200;28;2878;-66
2023/02/25 07:24:09;;;;;;;;;;;;;;;19.81;43.51;99301.53;5064557;28;2548;-67
2023/02/25 07:26:37;;;;;;;;;;;;;;;19.83;43.67;99310.94;5056237;28;2755;-66
2023/02/25 07:29:03;;;;;;;;;;;;;;;19.86;43.69;99311.72;5073460;28;2971;-66
2023/02/25 07:31:30;;;;;;;;;;;;;;;19.89;44.04;99324.72;5051038;28;3042;-68
2023/02/25 07:33:58;;;;;;;;;;;;;;;19.90;44.03;99319.69;5063765;28;2797;-65
2023/02/25 07:36:26;;;;;;;;;;;;;;;19.93;44.06;99318.31;5074271;28;2857;-65
2023/02/25 07:38:53;;;;;;;;;;;;;;;19.90;44.36;99326.16;5069500;28;2907;-69
2023/02/25 07:41:19;;;;;;;;;;;;;;;19.56;43.45;99338.25;5068267;28;3303;-65
2023/02/25 07:43:45;;;;;;;;;;;;;;;19.69;44.10;99336.44;5070842;28;3074;-64
2023/02/25 07:46:12;;;;;;;;;;;;;;;19.80;44.45;99346.03;5077568;28;2920;-64
2023/02/25 07:48:38;;;;;;;;;;;;;;;19.86;44.35;99349.06;5079024;28;2981;-64
2023/02/25 07:51:05;;;;;;;;;;;;;;;19.91;44.25;99356.38;5079038;28;3046;-64
2023/02/25 07:53:32;;;;;;;;;;;;;;;19.93;44.40;99353.53;5077234;28;3605;-64
2023/02/25 07:55:58;;;;;;;;;;;;;;;19.95;44.18;99361.47;5078380;28;3203;-64
2023/02/25 07:58:27;;;;;;;;;;;;;;;19.96;44.35;99363.66;5077823;28;2916;-64
2023/02/25 08:00:53;;;;;;;;;;;;;;;19.99;44.36;99367.31;5079207;28;3102;-64
2023/02/25 08:03:20;;;;;;;;;;;;;;;19.99;44.31;99367.31;5076127;28;2932;-64
2023/02/25 08:05:48;;;;;;;;;;;;;;;19.99;44.41;99368.03;5077719;28;2974;-64
2023/02/25 08:08:15;;;;;;;;;;;;;;;20.00;44.37;99371.66;5078379;28;2929;-65
2023/02/25 08:10:42;;;;;;;;;;;;;;;19.96;44.69;99366.53;5075133;28;2995;-64
2023/02/25 08:13:08;;;;;;;;;;;;;;;20.00;44.37;99374.53;5076573;28;3049;-64
2023/02/25 08:15:38;;;;;;;;;;;;;;;20.02;44.53;99381.06;5070648;28;2948;-64
2023/02/25 08:18:04;;;;;;;;;;;;;;;20.03;44.27;99381.78;5080240;28;2967;-64
2023/02/25 08:20:31;;;;;;;;;;;;;;;20.03;44.38;99399.03;5078761;28;3236;-65
2023/02/25 08:22:57;;;;;;;;;;;;;;;20.02;44.30;99389.69;5071961;28;3332;-64
2023/02/25 08:25:24;;;;;;;;;;;;;;;20.05;44.45;99399.06;5077008;28;2859;-65
2023/02/25 08:27:50;;;;;;;;;;;;;;;20.12;44.76;99408.56;5068371;28;3399;-66
2023/02/25 08:30:17;;;;;;;;;;;;;;;20.11;44.59;99401.34;5075303;28;2585;-71
2023/02/25 08:32:43;;;;;;;;;;;;;;;20.16;44.60;99409.41;5077831;28;1790;-69
2023/02/25 08:35:10;;;;;;;;;;;;;;;20.23;44.92;99413.88;5043958;28;4008;-67
2023/02/25 08:37:36;;;;;;;;;;;;;;;20.50;45.45;99414.47;5072791;28;2982;-67
2023/02/25 08:40:09;;;;;;;;;;;;;;;20.58;45.25;99422.59;5064680;28;3623;-66
2023/02/25 08:42:36;;;;;;;;;;;;;;;20.75;45.10;99427.28;5075395;28;2927;-65
2023/02/25 08:45:02;;;;;;;;;;;;;;;20.79;45.01;99433.13;5080780;28;2268;-65
2023/02/25 08:47:29;;;;;;;;;;;;;;;20.76;45.15;99437.41;5066226;28;4814;-65
2023/02/25 08:49:55;;;;;;;;;;;;;;;20.76;45.00;99431.63;5076075;28;4428;-65
2023/02/25 08:52:22;;;;;;;;;;;;;;;20.80;44.91;99436.75;5056172;28;4712;-65
2023/02/25 08:54:49;;;;;;;;;;;;;;;20.93;45.21;99444.22;5070111;28;3924;-64
2023/02/25 08:57:16;;;;;;;;;;;;;;;21.00;44.88;99442.94;5078363;28;1698;-61
2023/02/25 08:59:42;;;;;;;;;;;;;;;20.96;44.93;99447.88;5072823;28;4417;-62
2023/02/25 09:02:09;;;;;;;;;;;;;;;20.96;44.92;99453.63;5076231;28;1650;-63
2023/02/25 09:04:35;;;;;;;;;;;;;;;20.96;45.12;99453.63;5103623;27;2816;-62
2023/02/25 09:07:02;;;;;;;;;;;;;;;20.98;45.01;99456.53;5081655;28;2005;-63
2023/02/25 09:09:28;;;;;;;;;;;;;;;21.05;44.77;99464.66;5078791;28;1663;-62
2023/02/25 09:11:54;;;;;;;;;;;;;;;21.08;45.59;99465.41;5079764;28;1874;-68
2023/02/25 09:14:27;;;;;;;;;;;;;;;21.18;44.88;99467.78;5075497;28;2997;-65
2023/02/25 09:17:03;;;;;;;;;;;;;;;21.23;44.78;99472.91;5078340;28;3001;-65
2023/02/25 09:19:30;;;;;;;;;;;;;;;21.22;44.41;99485.13;5070821;28;3377;-67
2023/02/25 09:21:56;;;;;;;;;;;;;;;21.15;45.09;99480.66;5062364;28;3112;-66
2023/02/25 09:24:23;;;;;;;;;;;;;;;21.31;45.18;99487.47;5059626;28;2969;-63
2023/02/25 09:26:49;;;;;;;;;;;;;;;21.53;44.39;99490.13;5059835;28;3016;-69
2023/02/25 09:29:21;;;;;;;;;;;;;;;20.57;44.50;99496.66;5061272;28;3096;-63
2023/02/25 09:31:48;;;;;;;;;;;;;;;20.80;44.84;99497.91;5064830;28;2745;-62
2023/02/25 09:34:14;;;;;;;;;;;;;;;20.95;44.88;99509.72;5077058;28;3123;-62
2023/02/25 09:36:41;;;;;;;;;;;;;;;20.96;45.06;99508.28;5071716;28;3446;-63
2023/02/25 09:39:08;;;;;;;;;;;;;;;21.01;45.11;99507.72;5076605;28;2974;-64
2023/02/25 09:41:39;;;;;;;;;;;;;;;21.06;44.99;99520.03;5063645;28;3173;-66
2023/02/25 09:44:07;;;;;;;;;;;;;;;21.13;45.22;99527.41;5076021;28;3153;-65
2023/02/25 09:46:34;;;;;;;;;;;;;;;21.16;44.92;99528.91;5075774;28;3068;-61
2023/02/25 09:49:01;;;;;;;;;;;;;;;21.17;44.87;99527.50;5076365;28;2084;-62
2023/02/25 09:51:39;;;;;;;;;;;;;;;21.19;45.12;99527.53;5066102;28;3196;-61
2023/02/25 09:54:17;;;;;;;;;;;;;;;21.17;45.11;99530.38;5105804;27;2936;-62
2023/02/25 09:56:43;;;;;;;;;;;;;;;21.19;45.08;99539.06;5101544;27;4695;-63
2023/02/25 09:59:12;;;;;;;;;;;;;;;21.16;45.30;99546.16;5064328;28;4679;-63
2023/02/25 10:01:40;;;;;;;;;;;;;;;21.13;45.37;99542.50;5069068;28;4716;-62
2023/02/25 10:04:08;;;;;;;;;;;;;;;21.10;45.35;99543.16;5094797;27;5392;-64
2023/02/25 10:06:38;;;;;;;;;;;;;;;21.13;45.47;99554.03;5067109;28;3326;-64
2023/02/25 10:09:10;;;;;;;;;;;;;;;21.14;45.63;99554.75;5105734;27;3017;-64
2023/02/25 10:11:40;;;;;;;;;;;;;;;21.14;45.91;99563.38;5057103;28;4879;-67
2023/02/25 10:14:15;;;;;;;;;;;;;;;21.08;46.98;99569.03;5049228;28;4846;-71
2023/02/25 10:16:50;;;;;;;;;;;;;;;21.13;47.51;99570.56;5096906;27;3965;-67
2023/02/25 10:19:27;;;;;;;;;;;;;;;21.18;47.33;99572.13;5067734;28;4920;-67
2023/02/25 10:21:59;;;;;;;;;;;;;;;20.98;47.68;99583.91;5095969;27;2920;-65
2023/02/25 10:24:29;;;;;;;;;;;;;;;20.95;48.94;99584.53;5104551;27;2976;-66
2023/02/25 10:27:14;;;;;;;;;;;;;;;20.93;48.72;99588.81;5098569;27;2889;-65
2023/02/25 10:29:48;;;;;;;;;;;;;;;20.93;48.90;99591.69;5073325;28;2709;-64
2023/02/25 10:32:16;;;;;;;;;;;;;;;20.92;48.88;99586.63;5070068;28;3067;-70
2023/02/25 10:34:42;;;;;;;;;;;;;;;20.86;48.50;99595.13;5070881;28;2895;-67
2023/02/25 10:37:14;;;;;;;;;;;;;;;20.90;49.00;99598.09;5058497;28;3173;-61
2023/02/25 10:39:41;;;;;;;;;;;;;;;20.90;48.95;99595.22;5101340;27;3405;-62
2023/02/25 10:42:08;;;;;;;;;;;;;;;20.91;49.50;99605.31;5071827;28;2612;-61
2023/02/25 10:44:35;;;;;;;;;;;;;;;20.90;49.53;99607.44;5104825;27;2856;-61
2023/02/25 10:47:02;;;;;;;;;;;;;;;20.90;49.70;99607.44;5074447;28;1965;-60
2023/02/25 10:49:29;;;;;;;;;;;;;;;20.88;49.90;99621.78;5072547;28;2114;-61
2023/02/25 10:51:56;;;;;;;;;;;;;;;20.90;49.64;99627.59;5107359;27;1746;-61
2023/02/25 10:54:26;;;;;;;;;;;;;;;20.89;49.90;99619.63;5072858;28;3020;-61
2023/02/25 10:56:52;;;;;;;;;;;;;;;20.89;49.89;99629.03;5073965;28;2798;-61
2023/02/25 10:59:24;;;;;;;;;;;;;;;20.89;49.82;99628.28;5106043;27;1862;-61
2023/02/25 11:01:51;;;;;;;;;;;;;;;20.88;50.35;99630.41;5074139;28;1688;-61
2023/02/25 11:04:18;;;;;;;;;;;;;;;20.87;50.40;99637.59;5106046;28;1858;-60
2023/02/25 11:06:44;;;;;;;;;;;;;;;20.86;50.52;99627.50;5069521;28;2905;-61
2023/02/25 11:09:19;;;;;;;;;;;;;;;20.87;50.13;99642.63;5069233;28;2785;-60
2023/02/25 11:12:04;;;;;;;;;;;;;;;20.84;50.71;99643.97;5068591;28;3315;-60
2023/02/25 11:14:31;;;;;;;;;;;;;;;20.84;50.75;99655.47;5069873;28;2744;-61
2023/02/25 11:17:01;;;;;;;;;;;;;;;20.84;50.35;99652.59;5069097;28;2990;-61
2023/02/25 11:19:28;;;;;;;;;;;;;;;20.82;51.04;99661.19;5068530;28;2919;-61
2023/02/25 11:21:54;;;;;;;;;;;;;;;20.81;50.47;99656.84;5096193;28;2993;-61
2023/02/25 11:24:22;;;;;;;;;;;;;;;20.80;51.23;99666.88;5056818;28;3482;-61
2023/02/25 11:26:49;;;;;;;;;;;;;;;20.77;51.48;99674.72;5071563;28;2688;-61
2023/02/25 11:29:20;;;;;;;;;;;;;;;20.76;51.63;99679.03;5062170;28;3079;-61
2023/02/25 11:31:50;;;;;;;;;;;;;;;20.67;51.01;99683.09;5067119;28;3245;-62
2023/02/25 11:34:24;;;;;;;;;;;;;;;20.74;50.55;99684.00;5066085;28;3063;-62
2023/02/25 11:36:51;;;;;;;;;;;;;;;20.73;51.28;99689.03;5064648;28;2883;-60
2023/02/25 11:39:24;;;;;;;;;;;;;;;20.77;51.12;99691.25;5057744;28;3511;-64
2023/02/25 11:41:51;;;;;;;;;;;;;;;20.78;51.99;99699.22;5094063;28;3335;-64
2023/02/25 11:44:19;;;;;;;;;;;;;;;20.79;51.88;99700.69;5071006;28;1907;-63
2023/02/25 11:46:48;;;;;;;;;;;;;;;20.80;51.40;99707.16;5070351;28;1722;-63
2023/02/25 11:49:14;;;;;;;;;;;;;;;20.81;51.75;99711.50;5069002;28;1941;-64
2023/02/25 11:51:46;;;;;;;;;;;;;;;20.78;52.17;99704.25;5066653;28;2908;-63
2023/02/25 11:54:12;;;;;;;;;;;;;;;20.78;52.38;99716.47;5100368;28;2837;-63
2023/02/25 11:56:42;;;;;;;;;;;;;;;20.76;52.34;99712.81;5063470;28;3020;-63
2023/02/25 11:59:12;;;;;;;;;;;;;;;20.76;51.50;99716.44;5094304;28;3167;-63
2023/02/25 12:01:57;;;;;;;;;;;;;;;20.75;52.24;99723.59;5098074;28;3051;-63
2023/02/25 12:04:34;;;;;;;;;;;;;;;20.78;52.51;99727.28;5063144;28;3128;-63
2023/02/25 12:07:09;;;;;;;;;;;;;;;20.81;52.30;99726.63;5092253;28;3069;-63
2023/02/25 12:09:36;;;;;;;;;;;;;;;20.82;51.66;99727.34;5053784;28;2854;-63
2023/02/25 12:12:25;;;;;;;;;;;;;;;20.81;51.46;99732.38;5055966;28;3123;-64
2023/02/25 12:15:10;;;;;;;;;;;;;;;20.77;51.40;99725.78;5089783;27;2958;-62
2023/02/25 12:17:39;;;;;;;;;;;;;;;20.92;50.88;99737.00;5064808;28;3009;-66
2023/02/25 12:20:24;;;;;;;;;;;;;;;20.87;51.02;99738.31;5054638;28;4442;-67
2023/02/25 12:22:51;;;;;;;;;;;;;;;20.92;50.86;99747.78;5057186;28;2826;-68
2023/02/25 12:25:23;;;;;;;;;;;;;;;20.84;51.14;99762.66;5052637;28;4496;-68
2023/02/25 12:28:03;;;;;;;;;;;;;;;20.80;51.50;99765.44;5050107;28;4537;-67
2023/02/25 12:30:32;;;;;;;;;;;;;;;20.80;51.69;99771.19;5081239;27;2989;-68
2023/02/25 12:33:04;;;;;;;;;;;;;;;20.78;51.83;99776.91;5060880;28;3009;-68
2023/02/25 12:35:48;;;;;;;;;;;;;;;20.80;51.92;99776.97;5087293;27;2876;-67
2023/02/25 12:38:14;;;;;;;;;;;;;;;20.80;51.98;99771.19;5088084;27;3003;-67
2023/02/25 12:40:52;;;;;;;;;;;;;;;20.81;51.95;99787.03;5058502;28;2966;-68
2023/02/25 12:43:40;;;;;;;;;;;;;;;20.82;51.99;99779.91;5081982;27;4582;-67
2023/02/25 12:46:09;;;;;;;;;;;;;;;20.84;52.08;99787.84;5086331;27;2987;-67
2023/02/25 12:48:45;;;;;;;;;;;;;;;20.84;52.13;99790.72;5054127;28;3002;-68
2023/02/25 12:51:21;;;;;;;;;;;;;;;20.84;52.06;99785.69;5054664;28;2722;-67
2023/02/25 12:53:57;;;;;;;;;;;;;;;20.83;52.10;99803.63;5044737;28;4747;-67
2023/02/25 12:56:29;;;;;;;;;;;;;;;20.83;52.14;99818.03;5051630;28;3911;-67
2023/02/25 12:59:10;;;;;;;;;;;;;;;20.83;52.07;99815.88;5088667;27;2953;-67
2023/02/25 13:01:54;;;;;;;;;;;;;;;20.82;52.02;99811.53;5081234;27;3036;-67
2023/02/25 13:04:39;;;;;;;;;;;;;;;20.82;52.00;99830.94;5052558;28;4482;-67
2023/02/25 13:07:13;;;;;;;;;;;;;;;20.80;51.88;99823.00;5054543;28;3027;-67